createdAt,value
2022-07-26T00:00:38.964Z,8.90
2022-07-26T00:03:44.458Z,9.70
2022-07-26T00:06:50.013Z,9.60
2022-07-26T00:09:55.362Z,11.00
2022-07-26T00:13:00.691Z,11.00
2022-07-26T00:16:06.835Z,9.20
2022-07-26T00:19:12.330Z,9.10
2022-07-26T00:22:35.983Z,8.80
2022-07-26T00:25:41.470Z,10.00
2022-07-26T00:28:47.025Z,9.90
2022-07-26T00:31:52.458Z,9.70
2022-07-26T00:34:57.949Z,8.90
2022-07-26T00:38:03.297Z,8.70
2022-07-26T00:41:10.298Z,11.40
2022-07-26T00:44:15.669Z,10.60
2022-07-26T00:47:21.069Z,9.70
2022-07-26T00:50:26.504Z,9.80
2022-07-26T00:53:31.861Z,11.30
2022-07-26T00:56:37.408Z,11.60
2022-07-26T00:59:43.105Z,9.50
2022-07-26T01:02:48.656Z,9.90
2022-07-26T01:05:54.462Z,9.50
2022-07-26T01:09:00.704Z,9.10
2022-07-26T01:12:06.734Z,9.00
2022-07-26T01:15:14.969Z,10.00
2022-07-26T01:18:20.518Z,13.70
2022-07-26T01:21:29.239Z,9.80
2022-07-26T01:24:34.629Z,10.40
2022-07-26T01:27:40.559Z,10.90
2022-07-26T01:30:46.018Z,11.10
2022-07-26T01:33:51.998Z,9.40
2022-07-26T01:36:57.435Z,10.40
2022-07-26T01:40:02.846Z,10.40
2022-07-26T01:43:08.234Z,11.20
2022-07-26T01:46:14.273Z,11.70
2022-07-26T01:52:24.082Z,10.80
2022-07-26T01:55:29.480Z,13.20
2022-07-26T01:58:34.923Z,11.50
2022-07-26T02:01:40.518Z,12.40
2022-07-26T02:05:01.895Z,10.80
2022-07-26T02:08:07.633Z,10.50
2022-07-26T02:11:15.096Z,10.60
2022-07-26T02:14:26.058Z,11.70
2022-07-26T02:17:33.709Z,11.40
2022-07-26T02:20:39.141Z,11.40
2022-07-26T02:23:44.486Z,10.00
2022-07-26T02:26:50.087Z,9.20
2022-07-26T02:29:55.450Z,11.60
2022-07-26T02:33:00.778Z,9.60
2022-07-26T02:36:06.804Z,11.10
2022-07-26T02:39:12.578Z,10.60
2022-07-26T02:42:17.957Z,9.50
2022-07-26T02:45:23.945Z,11.60
2022-07-26T02:48:29.320Z,9.30
2022-07-26T02:51:34.777Z,12.20
2022-07-26T02:54:40.130Z,11.30
2022-07-26T02:57:46.761Z,10.20
2022-07-26T03:00:52.246Z,10.50
2022-07-26T03:03:57.581Z,10.20
2022-07-26T03:07:02.983Z,11.20
2022-07-26T03:10:11.293Z,12.00
2022-07-26T03:13:16.637Z,11.70
2022-07-26T03:16:24.868Z,13.40
2022-07-26T03:19:34.324Z,11.10
2022-07-26T03:22:39.679Z,13.10
2022-07-26T03:25:45.226Z,10.70
2022-07-26T03:28:50.558Z,11.70
2022-07-26T03:31:55.905Z,10.40
2022-07-26T03:35:01.421Z,9.80
2022-07-26T03:38:06.912Z,11.10
2022-07-26T03:41:13.414Z,11.90
2022-07-26T03:44:19.178Z,11.20
2022-07-26T03:47:24.506Z,10.70
2022-07-26T03:50:30.037Z,11.00
2022-07-26T03:53:35.965Z,9.70
2022-07-26T03:56:41.366Z,11.50
2022-07-26T03:59:46.740Z,10.80
2022-07-26T04:02:52.177Z,10.80
2022-07-26T04:05:57.674Z,10.70
2022-07-26T04:12:11.350Z,11.40
2022-07-26T04:15:19.144Z,10.20
2022-07-26T04:18:25.554Z,8.70
2022-07-26T04:21:30.886Z,10.10
2022-07-26T04:24:36.345Z,11.30
2022-07-26T04:27:41.856Z,10.60
2022-07-26T04:30:47.244Z,10.70
2022-07-26T04:33:53.025Z,10.80
2022-07-26T04:36:58.362Z,11.50
2022-07-26T04:40:03.937Z,11.20
2022-07-26T04:43:10.033Z,11.30
2022-07-26T04:59:32.748Z,9.40
2022-07-26T05:02:39.112Z,10.20
2022-07-26T05:05:45.367Z,10.40
2022-07-26T05:08:51.539Z,10.40
2022-07-26T05:11:57.711Z,9.40
2022-07-26T05:15:04.565Z,10.10
2022-07-26T05:18:13.877Z,11.30
2022-07-26T05:21:20.487Z,11.20
2022-07-26T05:24:26.608Z,10.00
2022-07-26T05:27:32.890Z,10.00
2022-07-26T05:30:39.210Z,10.50
2022-07-26T05:33:45.442Z,10.20
2022-07-26T05:36:51.700Z,9.00
2022-07-26T05:39:57.971Z,9.30
2022-07-26T05:43:04.990Z,11.10
2022-07-26T05:46:11.343Z,15.80
2022-07-26T05:49:17.730Z,13.20
2022-07-26T05:52:25.072Z,11.40
2022-07-26T05:55:31.237Z,11.50
2022-07-26T05:58:37.675Z,12.00
2022-07-26T06:01:43.899Z,11.90
2022-07-26T06:04:50.167Z,11.40
2022-07-26T06:07:56.366Z,14.00
2022-07-26T06:11:02.519Z,11.30
2022-07-26T06:14:09.011Z,12.10
2022-07-26T06:17:15.369Z,9.10
2022-07-26T06:20:21.602Z,12.50
2022-07-26T06:23:31.987Z,9.80
2022-07-26T06:26:41.368Z,11.40
2022-07-26T06:29:49.266Z,10.90
2022-07-26T06:32:55.479Z,10.30
2022-07-26T06:36:01.733Z,11.20
2022-07-26T06:39:08.171Z,10.60
2022-07-26T06:42:14.187Z,10.10
2022-07-26T06:45:20.871Z,10.30
2022-07-26T06:48:26.907Z,11.40
2022-07-26T06:51:33.145Z,10.20
2022-07-26T06:54:39.467Z,11.70
2022-07-26T06:57:50.146Z,10.30
2022-07-26T07:00:56.976Z,10.30
2022-07-26T07:04:03.203Z,10.00
2022-07-26T07:07:09.371Z,9.90
2022-07-26T07:10:15.507Z,10.00
2022-07-26T07:13:22.271Z,9.90
2022-07-26T07:16:28.400Z,10.10
2022-07-26T07:19:36.205Z,10.30
2022-07-26T07:22:42.310Z,10.30
2022-07-26T07:25:48.843Z,10.20
2022-07-26T07:28:55.068Z,9.90
2022-07-26T07:32:03.600Z,13.90
2022-07-26T07:35:12.740Z,12.10
2022-07-26T07:38:19.860Z,10.70
2022-07-26T07:41:28.812Z,13.90
2022-07-26T07:44:35.014Z,11.40
2022-07-26T07:47:41.626Z,10.80
2022-07-26T07:50:48.148Z,12.10
2022-07-26T07:53:56.304Z,13.30
2022-07-26T07:57:03.654Z,14.60
2022-07-26T08:00:12.816Z,15.40
2022-07-26T08:03:22.406Z,14.20
2022-07-26T08:06:28.533Z,14.80
2022-07-26T08:09:34.534Z,13.60
2022-07-26T08:12:40.475Z,13.60
2022-07-26T08:15:46.695Z,13.40
2022-07-26T08:19:08.737Z,17.80
2022-07-26T08:22:15.266Z,15.30
2022-07-26T08:25:21.953Z,17.40
2022-07-26T08:31:55.135Z,17.90
2022-07-26T08:35:17.793Z,13.50
2022-07-26T08:38:25.880Z,16.40
2022-07-26T08:41:32.139Z,14.80
2022-07-26T08:44:38.409Z,15.30
2022-07-26T08:48:07.315Z,15.60
2022-07-26T08:51:12.971Z,14.00
2022-07-26T08:54:20.181Z,16.70
2022-07-26T08:57:26.383Z,16.40
2022-07-26T09:00:33.768Z,18.30
2022-07-26T09:03:40.288Z,15.00
2022-07-26T09:06:58.220Z,16.00
2022-07-26T09:10:07.747Z,15.40
2022-07-26T09:13:13.660Z,16.60
2022-07-26T09:16:19.760Z,14.90
2022-07-26T09:19:25.932Z,17.10
2022-07-26T09:22:32.290Z,17.40
2022-07-26T09:25:39.868Z,15.30
2022-07-26T09:28:46.078Z,14.80
2022-07-26T09:31:52.265Z,15.30
2022-07-26T09:35:44.091Z,15.00
2022-07-26T09:38:45.428Z,19.60
2022-07-26T09:42:17.565Z,15.90
2022-07-26T09:45:20.295Z,16.40
2022-07-26T09:48:46.154Z,16.20
2022-07-26T09:51:58.086Z,18.80
2022-07-26T09:55:08.382Z,21.10
2022-07-26T09:58:17.560Z,17.60
2022-07-26T10:01:23.862Z,18.40
2022-07-26T10:04:30.532Z,20.40
2022-07-26T10:07:37.924Z,19.60
2022-07-26T10:10:51.928Z,19.60
2022-07-26T10:13:58.970Z,19.20
2022-07-26T10:17:49.507Z,20.20
2022-07-26T10:20:55.804Z,22.30
2022-07-26T10:24:03.946Z,24.10
2022-07-26T10:27:09.964Z,22.50
2022-07-26T10:30:35.075Z,20.40
2022-07-26T10:33:46.997Z,20.00
2022-07-26T10:37:00.643Z,20.60
2022-07-26T10:40:30.308Z,20.70
2022-07-26T10:43:41.551Z,21.40
2022-07-26T10:47:16.774Z,21.10
2022-07-26T10:50:35.050Z,33.00
2022-07-26T10:53:41.631Z,23.40
2022-07-26T10:56:47.851Z,21.80
2022-07-26T10:59:56.847Z,19.50
2022-07-26T11:03:03.167Z,18.10
2022-07-26T11:06:18.726Z,18.40
2022-07-26T11:09:24.859Z,19.70
2022-07-26T11:12:30.947Z,20.90
2022-07-26T11:15:38.175Z,18.40
2022-07-26T11:18:44.439Z,18.10
2022-07-26T11:21:56.635Z,17.10
2022-07-26T11:25:03.283Z,17.70
2022-07-26T11:28:09.639Z,21.60
2022-07-26T11:31:16.698Z,20.80
2022-07-26T11:34:28.272Z,20.80
2022-07-26T11:37:34.478Z,20.20
2022-07-26T11:40:48.835Z,21.90
2022-07-26T11:44:01.893Z,20.20
2022-07-26T11:47:16.034Z,20.60
2022-07-26T11:50:23.275Z,20.90
2022-07-26T11:53:29.843Z,19.80
2022-07-26T11:56:35.921Z,21.10
2022-07-26T11:59:44.989Z,20.90
2022-07-26T12:02:55.765Z,21.30
2022-07-26T12:06:10.493Z,21.60
2022-07-26T12:09:31.327Z,21.20
2022-07-26T12:12:37.510Z,22.00
2022-07-26T12:15:51.771Z,21.90
2022-07-26T12:18:58.095Z,21.10
2022-07-26T12:22:13.499Z,22.40
2022-07-26T12:28:46.851Z,24.20
2022-07-26T12:32:11.855Z,26.40
2022-07-26T12:35:29.518Z,27.40
2022-07-26T12:38:44.964Z,26.40
2022-07-26T12:41:54.232Z,26.30
2022-07-26T12:45:01.537Z,25.30
2022-07-26T12:48:12.009Z,27.60
2022-07-26T12:51:18.241Z,28.00
2022-07-26T12:54:29.370Z,27.80
2022-07-26T12:57:37.013Z,24.90
2022-07-26T13:00:43.255Z,24.00
2022-07-26T13:03:49.550Z,26.30
2022-07-26T13:06:55.657Z,22.60
2022-07-26T13:10:31.713Z,22.80
2022-07-26T13:13:28.212Z,24.80
2022-07-26T13:16:34.425Z,26.40
2022-07-26T13:19:40.643Z,26.40
2022-07-26T13:22:46.873Z,25.50
2022-07-26T13:25:54.003Z,23.30
2022-07-26T13:29:00.713Z,24.40
2022-07-26T13:32:07.822Z,23.50
2022-07-26T13:35:14.160Z,22.80
2022-07-26T13:38:20.488Z,22.40
2022-07-26T13:41:26.662Z,24.40
2022-07-26T13:44:34.927Z,21.40
2022-07-26T13:47:41.072Z,20.40
2022-07-26T13:50:47.287Z,20.20
2022-07-26T13:53:55.395Z,21.00
2022-07-26T13:57:03.333Z,19.40
2022-07-26T14:00:11.575Z,21.20
2022-07-26T14:03:18.339Z,21.00
2022-07-26T14:06:26.519Z,18.20
2022-07-26T14:09:32.742Z,18.50
2022-07-26T14:12:40.979Z,18.00
2022-07-26T14:15:47.080Z,16.40
2022-07-26T14:18:55.191Z,17.60
2022-07-26T14:22:01.356Z,16.40
2022-07-26T14:25:08.683Z,13.20
2022-07-26T14:28:14.856Z,11.20
2022-07-26T14:31:21.489Z,10.20
2022-07-26T14:34:27.769Z,9.00
2022-07-26T14:37:43.940Z,9.00
2022-07-26T14:40:51.796Z,10.20
2022-07-26T14:43:57.944Z,12.20
2022-07-26T14:47:04.322Z,11.60
2022-07-26T14:50:17.199Z,10.20
2022-07-26T14:53:25.003Z,8.50
2022-07-26T14:56:31.204Z,7.70
2022-07-26T14:59:37.367Z,14.40
2022-07-26T15:02:45.495Z,8.10
2022-07-26T15:05:51.848Z,13.40
2022-07-26T15:08:57.999Z,10.20
2022-07-26T15:12:04.177Z,10.70
2022-07-26T15:15:12.160Z,11.00
2022-07-26T15:18:18.369Z,10.20
2022-07-26T15:21:24.594Z,10.00
2022-07-26T15:24:30.879Z,9.00
2022-07-26T15:27:37.051Z,8.50
2022-07-26T15:30:43.232Z,7.60
2022-07-26T15:33:49.476Z,9.30
2022-07-26T15:36:55.659Z,10.10
2022-07-26T15:40:01.972Z,9.60
2022-07-26T15:43:08.120Z,9.70
2022-07-26T15:46:14.330Z,10.50
2022-07-26T15:49:22.260Z,9.70
2022-07-26T15:52:28.503Z,15.30
2022-07-26T15:55:34.845Z,8.40
2022-07-26T15:58:40.998Z,9.60
2022-07-26T16:01:47.454Z,11.40
2022-07-26T16:04:53.552Z,13.80
2022-07-26T16:07:59.780Z,9.50
2022-07-26T16:11:06.170Z,11.60
2022-07-26T16:14:12.357Z,11.50
2022-07-26T16:17:18.568Z,9.00
2022-07-26T16:20:24.745Z,10.30
2022-07-26T16:23:30.901Z,11.90
2022-07-26T16:26:37.370Z,12.50
2022-07-26T16:29:43.699Z,10.20
2022-07-26T16:32:50.290Z,10.80
2022-07-26T16:35:56.860Z,9.70
2022-07-26T16:39:03.198Z,10.00
2022-07-26T16:42:09.510Z,9.40
2022-07-26T16:45:15.834Z,11.10
2022-07-26T16:48:22.019Z,14.00
2022-07-26T16:51:28.404Z,10.10
2022-07-26T16:54:34.648Z,9.60
2022-07-26T16:57:41.422Z,10.60
2022-07-26T17:00:48.035Z,13.80
2022-07-26T17:03:54.308Z,10.40
2022-07-26T17:07:23.894Z,11.50
2022-07-26T17:10:27.122Z,13.00
2022-07-26T17:13:33.383Z,11.00
2022-07-26T17:16:39.866Z,10.40
2022-07-26T17:19:46.071Z,13.40
2022-07-26T17:22:52.224Z,11.60
2022-07-26T17:25:58.908Z,11.20
2022-07-26T17:29:06.353Z,11.00
2022-07-26T17:32:12.854Z,11.50
2022-07-26T17:35:19.055Z,11.30
2022-07-26T17:38:25.289Z,10.10
2022-07-26T17:41:33.524Z,10.60
2022-07-26T17:44:40.340Z,11.10
2022-07-26T17:47:46.965Z,11.20
2022-07-26T17:50:53.083Z,9.90
2022-07-26T17:53:59.240Z,12.60
2022-07-26T17:57:06.632Z,11.70
2022-07-26T18:00:15.023Z,11.50
2022-07-26T18:03:21.490Z,10.30
2022-07-26T18:06:27.682Z,10.80
2022-07-26T18:09:35.328Z,11.70
2022-07-26T18:12:41.977Z,11.30
2022-07-26T18:15:48.447Z,12.40
2022-07-26T18:18:54.728Z,10.70
2022-07-26T18:22:05.760Z,10.80
2022-07-26T18:25:12.988Z,12.50
2022-07-26T18:28:19.289Z,11.70
2022-07-26T18:31:25.616Z,11.30
2022-07-26T18:34:31.933Z,12.00
2022-07-26T18:37:38.127Z,11.40
2022-07-26T18:40:44.291Z,12.30
2022-07-26T18:43:50.437Z,11.30
2022-07-26T18:46:56.646Z,13.00
2022-07-26T18:50:02.879Z,13.90
2022-07-26T18:53:08.989Z,15.10
2022-07-26T18:56:15.167Z,12.00
2022-07-26T18:59:21.350Z,13.60
2022-07-26T19:02:27.609Z,11.50
2022-07-26T19:05:35.218Z,11.40
2022-07-26T19:08:42.055Z,13.10
2022-07-26T19:11:48.236Z,12.20
2022-07-26T19:14:54.553Z,12.40
2022-07-26T19:18:09.600Z,12.50
2022-07-26T19:21:15.852Z,12.30
2022-07-26T19:24:24.056Z,16.10
2022-07-26T19:27:30.350Z,11.70
2022-07-26T19:30:36.902Z,14.30
2022-07-26T19:33:43.275Z,15.20
2022-07-26T19:36:51.179Z,10.60
2022-07-26T19:40:00.633Z,11.00
2022-07-26T19:43:06.972Z,12.70
2022-07-26T19:46:13.272Z,10.80
2022-07-26T19:49:19.624Z,14.80
2022-07-26T19:52:26.046Z,10.90
2022-07-26T19:55:32.271Z,12.00
2022-07-26T19:58:38.521Z,12.80
2022-07-26T20:01:45.176Z,14.70
2022-07-26T20:04:51.532Z,11.50
2022-07-26T20:07:57.781Z,10.70
2022-07-26T20:11:03.966Z,10.40
2022-07-26T20:14:10.512Z,11.70
2022-07-26T20:17:16.935Z,12.60
2022-07-26T20:20:24.843Z,11.70
2022-07-26T20:23:31.606Z,12.80
2022-07-26T20:26:38.612Z,11.40
2022-07-26T20:29:44.744Z,12.30
2022-07-26T20:32:50.866Z,11.80
2022-07-26T20:35:57.068Z,11.20
2022-07-26T20:39:03.559Z,13.00
2022-07-26T20:42:13.536Z,13.30
2022-07-26T20:45:27.684Z,11.50
2022-07-26T20:48:33.911Z,12.10
2022-07-26T20:51:40.534Z,11.70
2022-07-26T20:54:46.743Z,10.50
2022-07-26T20:57:53.064Z,10.40
2022-07-26T21:00:59.514Z,11.20
2022-07-26T21:04:05.976Z,15.40
2022-07-26T21:07:12.194Z,14.30
2022-07-26T21:10:18.388Z,13.10
2022-07-26T21:13:25.111Z,13.10
2022-07-26T21:16:31.366Z,14.40
2022-07-26T21:19:37.775Z,11.00
2022-07-26T21:22:43.609Z,11.70
2022-07-26T21:25:50.081Z,11.20
2022-07-26T21:29:06.269Z,14.20
2022-07-26T21:32:12.536Z,11.40
2022-07-26T21:35:18.852Z,11.20
2022-07-26T21:38:25.021Z,14.10
2022-07-26T21:41:31.128Z,10.50
2022-07-26T21:44:37.191Z,10.40
2022-07-26T21:50:47.920Z,9.80
2022-07-26T21:53:54.070Z,10.40
2022-07-26T21:57:01.077Z,10.40
2022-07-26T22:00:07.852Z,10.30
2022-07-26T22:03:14.027Z,10.10
2022-07-26T22:06:20.214Z,10.80
2022-07-26T22:09:26.334Z,11.30
2022-07-26T22:12:32.517Z,11.40
2022-07-26T22:15:39.065Z,9.40
2022-07-26T22:18:45.202Z,10.30
2022-07-26T22:21:51.190Z,10.60
2022-07-26T22:28:02.827Z,10.80
2022-07-26T22:31:09.161Z,9.30
2022-07-26T22:34:15.409Z,9.60
2022-07-26T22:37:21.605Z,9.20
2022-07-26T22:40:27.789Z,10.10
2022-07-26T22:43:34.050Z,9.10
2022-07-26T22:46:40.301Z,10.40
2022-07-26T22:49:46.533Z,9.50
2022-07-26T22:52:52.743Z,8.90
2022-07-26T22:55:58.963Z,9.00
2022-07-26T22:59:05.317Z,8.80
2022-07-26T23:02:11.525Z,9.00
2022-07-26T23:05:18.113Z,10.50
2022-07-26T23:11:52.493Z,8.90
2022-07-26T23:14:58.659Z,6.70
2022-07-26T23:18:04.809Z,7.90
2022-07-26T23:21:11.038Z,7.00
2022-07-26T23:24:17.207Z,7.30
2022-07-26T23:27:23.331Z,7.70
2022-07-26T23:30:29.560Z,7.10
2022-07-26T23:33:51.442Z,8.90
2022-07-26T23:37:00.280Z,7.60
2022-07-26T23:40:07.626Z,7.30
2022-07-26T23:43:13.836Z,10.60
2022-07-26T23:46:20.091Z,6.00
2022-07-26T23:49:26.532Z,7.50
2022-07-26T23:52:32.746Z,6.80
2022-07-26T23:55:38.894Z,6.60
2022-07-26T23:58:45.684Z,5.90
